createdAt,value
2019-05-31T00:02:01.706Z,101372.95
2019-05-31T00:04:30.718Z,101371.89
2019-05-31T00:06:59.357Z,101367.00
2019-05-31T00:09:28.061Z,101364.81
2019-05-31T00:11:58.122Z,101378.94
2019-05-31T00:14:27.085Z,101372.30
2019-05-31T00:16:57.003Z,101368.69
2019-05-31T00:19:25.558Z,101368.69
2019-05-31T00:21:54.279Z,101360.08
2019-05-31T00:24:22.932Z,101360.08
2019-05-31T00:26:51.636Z,101359.97
2019-05-31T00:29:21.692Z,101366.82
2019-05-31T00:31:50.404Z,101363.39
2019-05-31T00:34:19.089Z,101365.43
2019-05-31T00:36:47.761Z,101365.43
2019-05-31T00:39:16.457Z,101363.16
2019-05-31T00:41:45.159Z,101356.19
2019-05-31T00:44:13.836Z,101356.19
2019-05-31T00:46:42.537Z,101356.69
2019-05-31T00:49:11.273Z,101354.72
2019-05-31T00:51:39.910Z,101354.72
2019-05-31T00:54:08.600Z,101356.09
2019-05-31T00:56:37.317Z,101354.73
2019-05-31T00:59:07.032Z,101345.20
2019-05-31T01:01:35.719Z,101348.53
2019-05-31T01:04:05.326Z,101341.47
2019-05-31T01:06:34.242Z,101341.47
2019-05-31T01:09:03.473Z,101343.75
2019-05-31T01:11:32.319Z,101341.05
2019-05-31T01:14:01.911Z,101346.74
2019-05-31T01:16:30.660Z,101342.39
2019-05-31T01:19:00.547Z,101343.53
2019-05-31T01:21:29.303Z,101336.66
2019-05-31T01:23:58.896Z,101349.44
2019-05-31T01:26:27.652Z,101349.45
2019-05-31T01:28:56.306Z,101350.69
2019-05-31T01:31:24.985Z,101350.69
2019-05-31T01:33:53.695Z,101350.61
2019-05-31T01:36:22.356Z,101348.99
2019-05-31T01:38:51.106Z,101349.20
2019-05-31T01:41:19.765Z,101349.20
2019-05-31T01:43:48.414Z,101349.21
2019-05-31T01:46:17.124Z,101349.21
2019-05-31T01:48:45.917Z,101345.59
2019-05-31T01:51:14.541Z,101345.59
2019-05-31T01:53:43.240Z,101351.24
2019-05-31T01:56:12.449Z,101351.24
2019-05-31T01:58:41.183Z,101348.44
2019-05-31T02:01:11.281Z,101348.44
2019-05-31T02:03:40.082Z,101347.18
2019-05-31T02:06:08.905Z,101347.18
2019-05-31T02:08:37.561Z,101342.51
2019-05-31T02:11:08.744Z,101341.67
2019-05-31T02:13:37.571Z,101338.06
2019-05-31T02:16:06.364Z,101330.98
2019-05-31T02:18:35.103Z,101336.17
2019-05-31T02:21:03.814Z,101336.17
2019-05-31T02:23:32.474Z,101340.95
2019-05-31T02:26:01.123Z,101348.14
2019-05-31T02:28:29.768Z,101349.59
2019-05-31T02:30:58.415Z,101349.59
2019-05-31T02:33:27.124Z,101354.16
2019-05-31T02:35:55.827Z,101354.16
2019-05-31T02:38:24.459Z,101351.17
2019-05-31T02:40:53.167Z,101348.58
2019-05-31T02:43:21.850Z,101350.55
2019-05-31T02:45:50.528Z,101350.55
2019-05-31T02:48:19.421Z,101353.72
2019-05-31T02:50:48.268Z,101352.30
2019-05-31T02:53:18.986Z,101343.36
2019-05-31T02:55:48.035Z,101350.00
2019-05-31T02:58:20.605Z,101348.14
2019-05-31T03:00:48.245Z,101357.27
2019-05-31T03:03:20.164Z,101357.27
2019-05-31T03:05:49.992Z,101354.34
2019-05-31T03:08:21.541Z,101354.45
2019-05-31T03:10:52.407Z,101356.97
2019-05-31T03:13:22.110Z,101362.77
2019-05-31T03:16:06.168Z,101362.77
2019-05-31T03:18:22.555Z,101355.40
2019-05-31T03:20:53.236Z,101353.95
2019-05-31T03:23:23.797Z,101359.34
2019-05-31T03:25:52.229Z,101362.78
2019-05-31T03:28:22.270Z,101365.58
2019-05-31T03:30:51.341Z,101365.58
2019-05-31T03:33:27.794Z,101348.98
2019-05-31T03:35:50.339Z,101366.08
2019-05-31T03:38:21.026Z,101366.08
2019-05-31T03:40:49.419Z,101374.30
2019-05-31T03:43:21.099Z,101381.45
2019-05-31T03:45:48.591Z,101378.64
2019-05-31T03:48:18.083Z,101381.66
2019-05-31T03:50:47.586Z,101381.66
2019-05-31T03:53:17.338Z,101371.18
2019-05-31T03:55:46.699Z,101371.18
2019-05-31T03:58:17.398Z,101382.17
2019-05-31T04:00:52.472Z,101379.19
2019-05-31T04:03:23.217Z,101392.39
2019-05-31T04:05:52.190Z,101394.45
2019-05-31T04:08:22.490Z,101390.94
2019-05-31T04:10:51.227Z,101386.78
2019-05-31T04:13:22.650Z,101390.94
2019-05-31T04:15:50.327Z,101387.91
2019-05-31T04:18:25.596Z,101387.91
2019-05-31T04:20:49.367Z,101389.67
2019-05-31T04:23:19.748Z,101391.88
2019-05-31T04:25:48.515Z,101389.16
2019-05-31T04:28:18.203Z,101389.16
2019-05-31T04:30:48.290Z,101390.40
2019-05-31T04:33:18.089Z,101390.40
2019-05-31T04:35:46.846Z,101395.91
2019-05-31T04:38:15.856Z,101395.72
2019-05-31T04:40:44.711Z,101398.16
2019-05-31T04:43:13.438Z,101397.14
2019-05-31T04:45:42.230Z,101395.16
2019-05-31T04:48:10.881Z,101397.85
2019-05-31T04:50:39.568Z,101397.85
2019-05-31T04:53:08.350Z,101396.08
2019-05-31T04:55:37.055Z,101395.14
2019-05-31T04:58:05.722Z,101398.08
2019-05-31T05:00:34.458Z,101398.08
2019-05-31T05:03:03.168Z,101383.94
2019-05-31T05:05:31.859Z,101383.94
2019-05-31T05:08:00.530Z,101402.21
2019-05-31T05:10:29.642Z,101400.29
2019-05-31T05:12:58.290Z,101392.59
2019-05-31T05:15:27.010Z,101392.59
2019-05-31T05:17:55.627Z,101401.39
2019-05-31T05:20:24.712Z,101403.35
2019-05-31T05:22:53.592Z,101390.77
2019-05-31T05:25:23.125Z,101390.77
2019-05-31T05:27:51.869Z,101403.80
2019-05-31T05:30:21.687Z,101403.80
2019-05-31T05:32:50.553Z,101408.25
2019-05-31T05:35:20.209Z,101401.57
2019-05-31T05:37:49.040Z,101414.13
2019-05-31T05:40:18.658Z,101413.86
2019-05-31T05:42:50.273Z,101413.72
2019-05-31T05:45:19.228Z,101423.19
2019-05-31T05:47:48.330Z,101423.19
2019-05-31T05:50:17.231Z,101412.93
2019-05-31T05:52:45.873Z,101406.03
2019-05-31T05:55:14.621Z,101413.64
2019-05-31T05:57:43.270Z,101411.55
2019-05-31T06:00:12.375Z,101411.55
2019-05-31T06:02:41.043Z,101425.66
2019-05-31T06:05:11.028Z,101424.02
2019-05-31T06:07:39.760Z,101425.83
2019-05-31T06:10:09.250Z,101424.56
2019-05-31T06:12:37.933Z,101419.31
2019-05-31T06:15:06.793Z,101421.88
2019-05-31T06:17:38.351Z,101419.77
2019-05-31T06:20:06.544Z,101428.17
2019-05-31T06:22:35.887Z,101428.17
2019-05-31T06:25:06.277Z,101419.82
2019-05-31T06:27:34.937Z,101429.45
2019-05-31T06:30:04.712Z,101423.44
2019-05-31T06:32:33.408Z,101427.64
2019-05-31T06:35:03.427Z,101421.77
2019-05-31T06:37:33.049Z,101421.77
2019-05-31T06:40:02.090Z,101420.84
2019-05-31T06:42:33.977Z,101424.52
2019-05-31T06:45:01.399Z,101423.13
2019-05-31T06:47:30.633Z,101428.72
2019-05-31T06:49:59.740Z,101422.11
2019-05-31T06:52:32.226Z,101419.97
2019-05-31T06:55:03.565Z,101421.20
2019-05-31T06:57:32.265Z,101425.22
2019-05-31T07:00:01.499Z,101426.14
2019-05-31T07:02:34.302Z,101423.07
2019-05-31T07:05:03.577Z,101417.02
2019-05-31T07:07:41.030Z,101425.38
2019-05-31T07:10:05.914Z,101424.96
2019-05-31T07:12:35.564Z,101428.34
2019-05-31T07:15:07.843Z,101428.06
2019-05-31T07:17:55.073Z,101427.54
2019-05-31T07:20:17.487Z,101432.04
2019-05-31T07:22:46.411Z,101423.11
2019-05-31T07:25:16.917Z,101415.39
2019-05-31T07:27:45.688Z,101427.17
2019-05-31T07:30:15.129Z,101421.59
2019-05-31T07:32:44.190Z,101412.47
2019-05-31T07:35:14.823Z,101418.13
2019-05-31T07:37:43.535Z,101416.21
2019-05-31T07:40:12.786Z,101416.36
2019-05-31T07:42:41.741Z,101421.20
2019-05-31T07:45:10.687Z,101412.52
2019-05-31T07:48:02.139Z,101412.93
2019-05-31T07:50:32.142Z,101417.55
2019-05-31T07:53:00.958Z,101419.14
2019-05-31T07:55:29.809Z,101418.56
2019-05-31T07:57:58.434Z,101419.88
2019-05-31T08:00:27.169Z,101421.23
2019-05-31T08:02:55.766Z,101422.96
2019-05-31T08:05:24.973Z,101423.39
2019-05-31T08:07:53.826Z,101420.36
2019-05-31T08:10:22.519Z,101414.91
2019-05-31T08:12:51.199Z,101415.10
2019-05-31T08:15:19.935Z,101413.55
2019-05-31T08:17:53.315Z,101417.88
2019-05-31T08:20:18.969Z,101421.88
2019-05-31T08:22:47.670Z,101418.22
2019-05-31T08:25:16.362Z,101414.03
2019-05-31T08:27:45.097Z,101410.81
2019-05-31T08:30:13.730Z,101416.45
2019-05-31T08:32:42.400Z,101412.57
2019-05-31T08:35:14.619Z,101411.38
2019-05-31T08:37:41.869Z,101404.89
2019-05-31T08:40:11.499Z,101410.04
2019-05-31T08:42:40.193Z,101400.00
2019-05-31T08:45:09.575Z,101407.52
2019-05-31T08:47:44.166Z,101397.27
2019-05-31T08:50:09.402Z,101398.36
2019-05-31T08:52:45.894Z,101394.88
2019-05-31T08:55:12.748Z,101393.67
2019-05-31T08:57:41.452Z,101393.56
2019-05-31T09:00:10.410Z,101398.70
2019-05-31T09:02:39.108Z,101399.37
2019-05-31T09:05:08.095Z,101400.01
2019-05-31T09:07:36.795Z,101396.17
2019-05-31T09:10:06.303Z,101390.98
2019-05-31T09:12:35.008Z,101389.63
2019-05-31T09:15:03.907Z,101384.30
2019-05-31T09:17:35.214Z,101386.28
2019-05-31T09:20:02.941Z,101376.63
2019-05-31T09:22:32.922Z,101379.89
2019-05-31T09:25:01.941Z,101375.98
2019-05-31T09:27:44.048Z,101375.15
2019-05-31T09:30:21.359Z,101381.02
2019-05-31T09:32:33.643Z,101386.31
2019-05-31T09:35:02.011Z,101380.28
2019-05-31T09:37:33.035Z,101382.80
2019-05-31T09:40:01.243Z,101377.88
2019-05-31T09:42:31.820Z,101378.02
2019-05-31T09:45:00.256Z,101378.37
2019-05-31T09:47:28.943Z,101378.34
2019-05-31T09:50:12.289Z,101382.81
2019-05-31T09:52:27.983Z,101380.77
2019-05-31T09:54:56.658Z,101380.83
2019-05-31T09:57:25.278Z,101375.19
2019-05-31T09:59:54.016Z,101383.27
2019-05-31T10:02:22.691Z,101376.12
2019-05-31T10:04:51.439Z,101372.20
2019-05-31T10:07:20.199Z,101378.20
2019-05-31T10:09:49.017Z,101378.58
2019-05-31T10:12:17.745Z,101373.71
2019-05-31T10:14:46.399Z,101380.73
2019-05-31T10:17:15.156Z,101371.17
2019-05-31T10:19:43.817Z,101376.55
2019-05-31T10:22:12.539Z,101371.71
2019-05-31T10:24:41.273Z,101367.95
2019-05-31T10:27:10.005Z,101363.68
2019-05-31T10:29:39.351Z,101362.37
2019-05-31T10:32:20.948Z,101360.98
2019-05-31T10:34:39.935Z,101358.61
2019-05-31T10:37:08.972Z,101360.52
2019-05-31T10:39:39.800Z,101359.31
2019-05-31T10:42:19.346Z,101354.32
2019-05-31T10:44:40.082Z,101358.87
2019-05-31T10:47:08.797Z,101358.73
2019-05-31T10:49:38.205Z,101349.31
2019-05-31T10:52:07.143Z,101346.19
2019-05-31T10:54:36.407Z,101348.44
2019-05-31T10:57:05.401Z,101342.98
2019-05-31T10:59:34.216Z,101340.12
2019-05-31T11:02:03.151Z,101330.64
2019-05-31T11:04:31.924Z,101333.98
2019-05-31T11:07:00.559Z,101321.92
2019-05-31T11:09:29.279Z,101326.22
2019-05-31T11:11:57.961Z,101323.25
2019-05-31T11:14:26.621Z,101317.15
2019-05-31T11:16:55.322Z,101317.45
2019-05-31T11:19:24.020Z,101316.92
2019-05-31T11:21:52.768Z,101319.95
2019-05-31T11:24:21.506Z,101318.25
2019-05-31T11:26:50.402Z,101323.77
2019-05-31T11:29:19.243Z,101316.69
2019-05-31T11:31:48.605Z,101312.81
2019-05-31T11:34:17.575Z,101314.75
2019-05-31T11:36:46.913Z,101312.30
2019-05-31T11:39:15.764Z,101314.25
2019-05-31T11:41:44.787Z,101311.48
2019-05-31T11:44:13.486Z,101315.05
2019-05-31T11:46:43.905Z,101310.40
2019-05-31T11:49:12.509Z,101309.05
2019-05-31T11:51:41.425Z,101311.70
2019-05-31T11:54:10.231Z,101305.13
2019-05-31T11:56:40.829Z,101308.66
2019-05-31T11:59:09.322Z,101309.72
2019-05-31T12:01:39.504Z,101303.48
2019-05-31T12:04:08.366Z,101303.53
2019-05-31T12:06:37.718Z,101296.72
2019-05-31T12:09:06.688Z,101299.95
2019-05-31T12:11:35.314Z,101307.09
2019-05-31T12:14:04.032Z,101300.52
2019-05-31T12:16:32.850Z,101306.83
2019-05-31T12:19:01.510Z,101303.56
2019-05-31T12:21:46.005Z,101297.52
2019-05-31T12:24:00.745Z,101301.05
2019-05-31T12:26:29.485Z,101294.23
2019-05-31T12:28:58.113Z,101306.32
2019-05-31T12:31:26.767Z,101296.15
2019-05-31T12:33:58.643Z,101292.52
2019-05-31T12:36:25.746Z,101296.31
2019-05-31T12:38:54.457Z,101295.94
2019-05-31T12:41:23.112Z,101292.74
2019-05-31T12:43:52.221Z,101291.91
2019-05-31T12:46:20.960Z,101293.06
2019-05-31T12:48:49.679Z,101292.59
2019-05-31T12:51:26.761Z,101294.48
2019-05-31T12:53:48.831Z,101293.69
2019-05-31T12:56:17.521Z,101290.97
2019-05-31T12:58:46.959Z,101292.56
2019-05-31T13:01:15.636Z,101295.30
2019-05-31T13:03:45.557Z,101288.72
2019-05-31T13:06:14.312Z,101292.30
2019-05-31T13:08:43.816Z,101294.24
2019-05-31T13:11:12.468Z,101287.91
2019-05-31T13:13:42.612Z,101294.72
2019-05-31T13:16:11.554Z,101286.20
2019-05-31T13:18:40.445Z,101285.69
2019-05-31T13:21:09.218Z,101288.43
2019-05-31T13:23:37.851Z,101287.63
2019-05-31T13:26:06.500Z,101290.11
2019-05-31T13:28:35.148Z,101285.46
2019-05-31T13:31:03.823Z,101277.45
2019-05-31T13:33:32.487Z,101283.52
2019-05-31T13:36:01.189Z,101276.59
2019-05-31T13:38:29.837Z,101279.91
2019-05-31T13:40:58.612Z,101275.25
2019-05-31T13:43:27.585Z,101273.34
2019-05-31T13:45:56.334Z,101266.41
2019-05-31T13:48:28.274Z,101271.55
2019-05-31T13:50:56.915Z,101267.48
2019-05-31T13:53:25.705Z,101266.23
2019-05-31T13:55:55.054Z,101262.88
2019-05-31T13:58:23.888Z,101259.69
2019-05-31T14:00:54.084Z,101266.25
2019-05-31T14:03:22.859Z,101271.80
2019-05-31T14:05:51.826Z,101270.52
2019-05-31T14:08:20.684Z,101267.02
2019-05-31T14:10:49.797Z,101264.53
2019-05-31T14:13:18.708Z,101255.20
2019-05-31T14:15:48.603Z,101257.58
2019-05-31T14:18:17.379Z,101263.08
2019-05-31T14:20:46.069Z,101255.28
2019-05-31T14:23:14.705Z,101262.77
2019-05-31T14:25:43.464Z,101258.53
2019-05-31T14:28:12.138Z,101256.04
2019-05-31T14:30:40.880Z,101245.95
2019-05-31T14:33:09.568Z,101245.85
2019-05-31T14:35:38.189Z,101241.00
2019-05-31T14:38:06.825Z,101244.19
2019-05-31T14:40:35.485Z,101245.47
2019-05-31T14:43:04.278Z,101242.06
2019-05-31T14:45:32.991Z,101245.25
2019-05-31T14:48:01.746Z,101244.09
2019-05-31T14:50:30.356Z,101242.31
2019-05-31T14:53:16.868Z,101241.23
2019-05-31T14:55:29.366Z,101238.70
2019-05-31T14:57:58.040Z,101240.36
2019-05-31T15:00:35.924Z,101245.02
2019-05-31T15:03:04.805Z,101246.18
2019-05-31T15:05:35.004Z,101239.78
2019-05-31T15:08:05.075Z,101234.25
2019-05-31T15:10:35.447Z,101231.25
2019-05-31T15:13:17.105Z,101228.22
2019-05-31T15:15:35.322Z,101221.83
2019-05-31T15:18:04.111Z,101221.09
2019-05-31T15:20:32.781Z,101226.39
2019-05-31T15:23:05.654Z,101232.97
2019-05-31T15:25:32.676Z,101231.84
2019-05-31T15:28:01.381Z,101229.68
2019-05-31T15:31:19.313Z,101233.06
2019-05-31T15:34:04.541Z,101228.85
2019-05-31T15:36:38.182Z,101221.25
2019-05-31T15:39:13.531Z,101224.02
2019-05-31T15:41:50.622Z,101218.53
2019-05-31T15:44:20.737Z,101224.25
2019-05-31T15:47:00.594Z,101222.95
2019-05-31T15:49:19.964Z,101229.23
2019-05-31T15:51:48.658Z,101220.73
2019-05-31T15:54:27.886Z,101219.08
2019-05-31T15:56:47.705Z,101213.05
2019-05-31T15:59:16.370Z,101215.25
2019-05-31T16:01:45.069Z,101219.36
2019-05-31T16:04:13.694Z,101212.77
2019-05-31T16:06:42.414Z,101209.77
2019-05-31T16:09:11.043Z,101210.88
2019-05-31T16:11:39.684Z,101203.72
2019-05-31T16:14:08.427Z,101209.75
2019-05-31T16:16:37.074Z,101202.36
2019-05-31T16:19:05.809Z,101201.29
2019-05-31T16:21:34.596Z,101205.94
2019-05-31T16:24:10.568Z,101200.44
2019-05-31T16:26:33.623Z,101207.03
2019-05-31T16:29:02.259Z,101202.66
2019-05-31T16:31:30.884Z,101199.36
2019-05-31T16:34:00.085Z,101211.15
2019-05-31T16:36:28.844Z,101205.91
2019-05-31T16:38:58.447Z,101201.81
2019-05-31T16:41:27.303Z,101202.36
2019-05-31T16:43:55.955Z,101201.55
2019-05-31T16:46:24.709Z,101195.78
2019-05-31T16:48:53.353Z,101196.08
2019-05-31T16:51:25.846Z,101198.52
2019-05-31T16:53:52.433Z,101193.58
2019-05-31T16:56:21.137Z,101193.31
2019-05-31T16:58:49.782Z,101190.02
2019-05-31T17:01:18.495Z,101193.88
2019-05-31T17:03:47.113Z,101186.22
2019-05-31T17:06:15.859Z,101186.49
2019-05-31T17:08:44.576Z,101189.50
2019-05-31T17:11:13.205Z,101187.86
2019-05-31T17:13:41.847Z,101182.91
2019-05-31T17:16:14.825Z,101177.69
2019-05-31T17:18:40.956Z,101190.02
2019-05-31T17:21:10.559Z,101184.83
2019-05-31T17:23:39.390Z,101186.73
2019-05-31T17:26:08.676Z,101180.97
2019-05-31T17:28:37.425Z,101180.44
2019-05-31T17:31:07.482Z,101185.92
2019-05-31T17:33:36.433Z,101179.63
2019-05-31T17:36:05.170Z,101175.48
2019-05-31T17:38:33.824Z,101179.56
2019-05-31T17:41:03.525Z,101172.27
2019-05-31T17:43:32.431Z,101176.73
2019-05-31T17:46:01.107Z,101170.49
2019-05-31T17:48:29.904Z,101174.55
2019-05-31T17:50:58.538Z,101173.09
2019-05-31T17:53:27.423Z,101178.45
2019-05-31T17:55:56.198Z,101175.80
2019-05-31T17:58:25.142Z,101175.55
2019-05-31T18:00:53.905Z,101170.83
2019-05-31T18:03:22.538Z,101168.73
2019-05-31T18:05:51.244Z,101167.38
2019-05-31T18:08:19.968Z,101164.64
2019-05-31T18:10:48.577Z,101167.43
2019-05-31T18:13:18.727Z,101167.18
2019-05-31T18:15:47.849Z,101166.64
2019-05-31T18:18:17.247Z,101164.44
2019-05-31T18:20:46.067Z,101167.76
2019-05-31T18:23:15.307Z,101161.50
2019-05-31T18:25:44.103Z,101170.30
2019-05-31T18:28:14.184Z,101167.00
2019-05-31T18:30:47.596Z,101165.08
2019-05-31T18:33:15.035Z,101164.00
2019-05-31T18:35:44.100Z,101162.36
2019-05-31T18:38:14.185Z,101162.63
2019-05-31T18:40:42.966Z,101162.36
2019-05-31T18:43:12.287Z,101161.53
2019-05-31T18:45:41.250Z,101159.08
2019-05-31T18:48:10.848Z,101162.02
2019-05-31T18:50:39.581Z,101158.46
2019-05-31T18:53:08.338Z,101158.17
2019-05-31T18:55:43.277Z,101162.52
2019-05-31T18:58:07.578Z,101161.11
2019-05-31T19:00:43.839Z,101162.19
2019-05-31T19:03:13.147Z,101156.91
2019-05-31T19:05:42.220Z,101161.41
2019-05-31T19:08:11.003Z,101161.16
2019-05-31T19:10:39.827Z,101165.24
2019-05-31T19:13:08.548Z,101161.29
2019-05-31T19:15:37.249Z,101155.44
2019-05-31T19:18:06.327Z,101164.00
2019-05-31T19:20:34.954Z,101161.38
2019-05-31T19:23:03.650Z,101164.36
2019-05-31T19:25:46.679Z,101164.16
2019-05-31T19:28:02.917Z,101167.62
2019-05-31T19:30:39.667Z,101167.51
2019-05-31T19:33:08.847Z,101171.44
2019-05-31T19:35:37.535Z,101172.84
2019-05-31T19:38:06.689Z,101166.89
2019-05-31T19:40:35.498Z,101166.69
2019-05-31T19:43:04.817Z,101171.45
2019-05-31T19:45:33.528Z,101167.60
2019-05-31T19:48:02.334Z,101176.66
2019-05-31T19:50:32.478Z,101176.70
2019-05-31T19:53:01.264Z,101177.17
2019-05-31T19:55:29.977Z,101172.67
2019-05-31T19:57:58.721Z,101182.42
2019-05-31T20:00:28.369Z,101180.13
2019-05-31T20:02:57.207Z,101183.27
2019-05-31T20:05:25.906Z,101181.41
2019-05-31T20:07:54.657Z,101187.06
2019-05-31T20:12:53.732Z,101189.04
2019-05-31T20:15:23.808Z,101193.68
2019-05-31T20:17:52.702Z,101183.08
2019-05-31T20:20:23.374Z,101190.13
2019-05-31T20:22:52.065Z,101186.08
2019-05-31T20:25:22.953Z,101192.28
2019-05-31T20:25:33.844Z,101189.07
2019-05-31T20:27:51.441Z,101189.02
2019-05-31T20:30:22.875Z,101191.61
2019-05-31T20:35:32.308Z,101194.64
2019-05-31T20:37:51.755Z,101195.72
2019-05-31T20:40:20.767Z,101190.72
2019-05-31T20:40:49.505Z,101191.88
2019-05-31T20:42:58.533Z,101192.36
2019-05-31T20:45:20.860Z,101188.41
2019-05-31T20:47:49.837Z,101185.59
2019-05-31T20:50:19.316Z,101177.99
2019-05-31T20:52:47.948Z,101184.88
2019-05-31T20:55:16.686Z,101189.81
2019-05-31T20:57:45.325Z,101184.97
2019-05-31T21:00:16.444Z,101193.64
2019-05-31T21:02:45.124Z,101192.16
2019-05-31T21:05:13.824Z,101191.30
2019-05-31T21:07:42.547Z,101197.64
2019-05-31T21:10:11.345Z,101199.80
2019-05-31T21:12:39.929Z,101195.83
2019-05-31T21:15:08.807Z,101206.83
2019-05-31T21:17:37.592Z,101203.03
2019-05-31T21:20:06.628Z,101198.02
2019-05-31T21:22:35.437Z,101200.18
2019-05-31T21:25:04.967Z,101202.70
2019-05-31T21:27:33.949Z,101202.98
2019-05-31T21:30:03.096Z,101202.94
2019-05-31T21:32:31.955Z,101201.73
2019-05-31T21:35:00.791Z,101196.86
2019-05-31T21:37:30.659Z,101195.98
2019-05-31T21:39:59.703Z,101197.34
2019-05-31T21:42:29.304Z,101194.34
2019-05-31T21:44:58.098Z,101200.72
2019-05-31T21:47:27.582Z,101201.00
2019-05-31T21:49:56.387Z,101195.38
2019-05-31T21:52:26.084Z,101194.47
2019-05-31T21:54:54.983Z,101190.95
2019-05-31T21:57:23.856Z,101199.59
2019-05-31T21:59:52.609Z,101192.07
2019-05-31T22:02:21.449Z,101196.08
2019-05-31T22:04:50.284Z,101188.18
2019-05-31T22:07:21.328Z,101188.18
2019-05-31T22:09:49.643Z,101191.63
2019-05-31T22:12:18.528Z,101191.63
2019-05-31T22:14:47.227Z,101186.53
2019-05-31T22:17:16.026Z,101185.73
2019-05-31T22:19:44.816Z,101185.52
2019-05-31T22:22:13.610Z,101187.53
2019-05-31T22:24:42.449Z,101176.77
2019-05-31T22:27:11.437Z,101190.52
2019-05-31T22:29:40.179Z,101182.09
2019-05-31T22:32:15.753Z,101182.09
2019-05-31T22:34:44.459Z,101188.99
2019-05-31T22:37:13.319Z,101194.81
2019-05-31T22:39:42.280Z,101179.94
2019-05-31T22:42:10.998Z,101193.98
2019-05-31T22:44:41.121Z,101193.41
2019-05-31T22:47:10.017Z,101193.41
2019-05-31T22:49:39.335Z,101183.08
2019-05-31T22:52:08.284Z,101190.00
2019-05-31T22:54:37.758Z,101176.58
2019-05-31T22:57:06.731Z,101176.58
2019-05-31T22:59:40.339Z,101182.11
2019-05-31T23:02:06.163Z,101191.77
2019-05-31T23:04:35.064Z,101191.77
2019-05-31T23:07:03.775Z,101182.75
2019-05-31T23:09:32.448Z,101183.89
2019-05-31T23:12:01.134Z,101181.47
2019-05-31T23:14:29.753Z,101180.70
2019-05-31T23:16:58.414Z,101182.75
2019-05-31T23:19:27.088Z,101183.85
2019-05-31T23:21:55.754Z,101169.41
2019-05-31T23:24:24.442Z,101176.80
2019-05-31T23:26:53.097Z,101167.30
2019-05-31T23:29:21.712Z,101174.55
2019-05-31T23:31:50.435Z,101174.55
2019-05-31T23:34:19.114Z,101169.64
2019-05-31T23:36:47.817Z,101174.34
2019-05-31T23:39:16.591Z,101169.45
2019-05-31T23:41:46.805Z,101175.77
2019-05-31T23:44:15.624Z,101166.36
2019-05-31T23:46:44.852Z,101169.64
2019-05-31T23:49:13.677Z,101169.64
2019-05-31T23:51:43.612Z,101172.56
2019-05-31T23:54:12.460Z,101172.98
2019-05-31T23:56:41.932Z,101167.19
2019-05-31T23:59:10.738Z,101173.27
